Time;durP1;ratioP1;P1;durP2;ratioP2;P2;SDS_P1;SDS_P2;PMS_P1;PMS_P2;Temp;Humidity;BMP_temperature;BMP_pressure;BME280_temperature;BME280_humidity;BME280_pressure;Samples;Min_cycle;Max_cycle;Signal;HPM_P1;HPM_P2
2022/05/01 00:02:18;;;;;;;14.15;12.85;;;10.00;99.90;;;;;;5048813;28;20184;-72
2022/05/01 00:04:43;;;;;;;14.35;13.13;;;10.00;99.90;;;;;;5055331;28;20180;-72
2022/05/01 00:07:12;;;;;;;13.27;12.13;;;10.10;99.90;;;;;;5047304;28;20211;-73
2022/05/01 00:09:42;;;;;;;12.45;11.45;;;10.10;99.90;;;;;;5055968;28;20175;-72
2022/05/01 00:12:08;;;;;;;13.15;11.80;;;10.00;99.90;;;;;;5052664;28;20172;-72
2022/05/01 00:14:35;;;;;;;12.73;11.43;;;9.90;99.90;;;;;;5050049;28;20176;-73
2022/05/01 00:17:01;;;;;;;11.55;10.57;;;9.90;99.90;;;;;;5052060;28;20737;-72
2022/05/01 00:19:27;;;;;;;12.07;10.88;;;10.00;99.90;;;;;;5060572;28;20176;-72
2022/05/01 00:21:55;;;;;;;12.38;11.30;;;10.00;99.90;;;;;;5052915;28;20649;-73
2022/05/01 00:24:21;;;;;;;11.50;10.32;;;9.90;99.90;;;;;;5050472;28;20199;-73
2022/05/01 00:26:47;;;;;;;11.68;10.68;;;9.80;99.90;;;;;;5041077;28;20203;-74
2022/05/01 00:29:12;;;;;;;12.27;11.25;;;10.00;99.90;;;;;;5048383;28;20184;-72
2022/05/01 00:31:39;;;;;;;12.80;11.70;;;10.00;99.90;;;;;;5051493;28;20650;-72
2022/05/01 00:36:50;;;;;;;13.23;12.02;;;10.10;99.90;;;;;;5047325;28;20312;-72
2022/05/01 00:39:16;;;;;;;12.43;11.43;;;10.10;99.90;;;;;;5039029;28;20184;-75
2022/05/01 00:41:43;;;;;;;12.45;11.35;;;10.10;99.90;;;;;;5041831;28;20203;-73
2022/05/01 00:44:12;;;;;;;13.00;11.82;;;10.20;99.90;;;;;;5043216;28;20184;-72
2022/05/01 00:46:41;;;;;;;13.13;11.63;;;10.20;99.90;;;;;;5046436;28;20598;-73
2022/05/01 00:49:13;;;;;;;13.57;12.18;;;10.40;99.90;;;;;;5048296;28;20266;-72
2022/05/01 00:51:51;;;;;;;12.80;11.70;;;10.20;99.90;;;;;;5050875;28;20543;-72
2022/05/01 00:54:18;;;;;;;12.90;11.90;;;10.10;99.90;;;;;;5048053;28;20562;-72
2022/05/01 00:56:47;;;;;;;12.57;11.55;;;10.10;99.90;;;;;;5043357;28;20295;-72
2022/05/01 00:59:14;;;;;;;13.45;12.32;;;10.10;99.90;;;;;;5045896;28;20919;-72
2022/05/01 01:01:44;;;;;;;13.82;12.63;;;10.00;99.90;;;;;;5050411;28;20225;-73
2022/05/01 01:04:11;;;;;;;12.70;11.52;;;10.10;99.90;;;;;;5038729;28;20572;-73
2022/05/01 01:06:37;;;;;;;13.98;12.50;;;10.20;99.90;;;;;;5043443;28;20204;-72
2022/05/01 01:09:04;;;;;;;15.25;13.90;;;10.20;99.90;;;;;;5045852;28;20180;-73
2022/05/01 01:11:30;;;;;;;13.95;12.65;;;10.40;99.90;;;;;;5047774;28;20243;-71
2022/05/01 01:13:56;;;;;;;12.38;11.38;;;10.30;99.90;;;;;;5050714;28;20184;-72
2022/05/01 01:16:21;;;;;;;13.13;11.95;;;10.20;99.90;;;;;;5049460;28;20295;-72
2022/05/01 01:18:47;;;;;;;12.27;11.27;;;10.10;99.90;;;;;;5050158;28;20180;-72
2022/05/01 01:21:13;;;;;;;13.43;12.13;;;10.10;99.90;;;;;;5048737;28;20234;-72
2022/05/01 01:23:40;;;;;;;13.27;11.95;;;10.10;99.90;;;;;;5058819;28;20637;-72
2022/05/01 01:26:07;;;;;;;12.70;11.60;;;10.10;99.90;;;;;;5053138;28;20203;-72
2022/05/01 01:28:37;;;;;;;13.05;11.75;;;10.20;99.90;;;;;;5046795;28;20234;-74
2022/05/01 01:34:00;;;;;;;12.65;11.48;;;10.00;99.90;;;;;;5051559;28;20205;-74
2022/05/01 01:36:28;;;;;;;14.02;12.65;;;10.10;99.90;;;;;;5045720;28;20195;-72
2022/05/01 01:38:55;;;;;;;12.43;11.38;;;10.20;99.90;;;;;;5049713;28;20175;-72
2022/05/01 01:41:28;;;;;;;13.80;12.60;;;10.10;99.90;;;;;;5050281;28;20180;-74
2022/05/01 01:43:54;;;;;;;14.80;13.50;;;10.00;99.90;;;;;;5050059;28;20172;-73
2022/05/01 01:46:20;;;;;;;13.77;12.35;;;10.10;99.90;;;;;;5046744;28;20200;-73
2022/05/01 01:48:46;;;;;;;14.65;13.15;;;10.10;99.90;;;;;;5054001;28;20512;-72
2022/05/01 01:51:12;;;;;;;13.93;12.65;;;10.20;99.90;;;;;;5048694;28;20180;-73
2022/05/01 01:53:39;;;;;;;14.10;12.75;;;10.10;99.90;;;;;;5058102;28;20225;-72
2022/05/01 01:56:07;;;;;;;14.15;12.85;;;10.00;99.90;;;;;;5048425;28;20290;-72
2022/05/01 01:58:33;;;;;;;14.63;13.32;;;9.90;99.90;;;;;;5057461;28;20674;-72
2022/05/01 02:01:02;;;;;;;13.88;12.63;;;9.80;99.90;;;;;;5052607;28;20194;-72
2022/05/01 02:03:28;;;;;;;14.38;12.95;;;9.80;99.90;;;;;;5053467;28;20609;-74
2022/05/01 02:05:54;;;;;;;14.18;12.85;;;9.80;99.90;;;;;;5047790;28;20215;-72
2022/05/01 02:08:20;;;;;;;14.75;13.35;;;9.80;99.90;;;;;;5058055;28;20210;-71
2022/05/01 02:10:47;;;;;;;13.90;12.70;;;9.90;99.90;;;;;;5055998;28;20211;-71
2022/05/01 02:13:13;;;;;;;15.40;14.00;;;9.90;99.90;;;;;;5044085;28;20177;-72
2022/05/01 02:15:39;;;;;;;15.18;13.68;;;9.90;99.90;;;;;;5050763;28;20203;-71
2022/05/01 02:18:06;;;;;;;14.75;13.40;;;10.00;99.90;;;;;;5046243;28;20190;-72
2022/05/01 02:21:34;;;;;;;14.48;13.18;;;9.90;99.90;;;;;;5045502;28;20219;-71
2022/05/01 02:23:21;;;;;;;16.45;14.68;;;9.90;99.90;;;;;;5051236;28;20193;-72
2022/05/01 02:25:48;;;;;;;16.80;13.45;;;10.00;99.90;;;;;;5053680;28;20204;-74
2022/05/01 02:28:14;;;;;;;17.30;15.63;;;10.00;99.90;;;;;;5049003;28;20302;-72
2022/05/01 02:30:40;;;;;;;16.95;15.35;;;10.00;99.90;;;;;;5058963;28;20176;-71
2022/05/01 02:33:07;;;;;;;16.95;15.35;;;9.90;99.90;;;;;;5052482;28;20738;-72
2022/05/01 02:35:34;;;;;;;17.38;15.75;;;9.90;99.90;;;;;;5057395;28;20227;-73
2022/05/01 02:38:02;;;;;;;17.52;15.70;;;9.90;99.90;;;;;;5049680;28;20180;-73
2022/05/01 02:40:29;;;;;;;19.30;17.35;;;9.80;99.90;;;;;;5055391;28;20188;-75
2022/05/01 02:42:58;;;;;;;18.98;16.98;;;9.80;99.90;;;;;;5051560;28;20183;-72
2022/05/01 02:45:24;;;;;;;19.42;17.50;;;10.00;99.90;;;;;;5048403;28;20208;-72
2022/05/01 02:47:50;;;;;;;18.83;17.02;;;10.00;99.90;;;;;;5055862;28;20203;-72
2022/05/01 02:50:15;;;;;;;19.58;17.58;;;9.90;99.90;;;;;;5052648;28;20188;-72
2022/05/01 02:52:41;;;;;;;19.02;17.13;;;9.90;99.90;;;;;;5046199;28;20178;-73
2022/05/01 02:55:07;;;;;;;19.50;17.17;;;9.90;99.90;;;;;;5050032;28;20322;-71
2022/05/01 02:57:33;;;;;;;19.83;16.50;;;10.00;99.90;;;;;;5049490;28;20248;-71
2022/05/01 02:59:59;;;;;;;21.67;19.40;;;10.00;99.90;;;;;;5048927;28;20273;-71
2022/05/01 03:02:24;;;;;;;22.45;18.23;;;10.00;99.90;;;;;;5051604;28;20187;-72
2022/05/01 03:04:50;;;;;;;19.45;17.35;;;10.00;99.90;;;;;;5056484;28;20190;-72
2022/05/01 03:07:16;;;;;;;20.98;18.77;;;9.90;99.90;;;;;;5039766;28;20210;-73
2022/05/01 03:09:42;;;;;;;24.40;21.05;;;9.70;99.90;;;;;;5051921;28;20172;-71
2022/05/01 03:12:08;;;;;;;20.85;18.63;;;9.80;99.90;;;;;;5057731;28;20561;-71
2022/05/01 03:14:34;;;;;;;21.13;18.88;;;9.80;99.90;;;;;;5060436;28;20187;-71
2022/05/01 03:17:00;;;;;;;21.17;19.05;;;9.80;99.90;;;;;;5054946;28;20296;-71
2022/05/01 03:22:16;;;;;;;22.02;19.65;;;9.70;99.90;;;;;;5053662;28;20226;-71
2022/05/01 03:24:42;;;;;;;19.45;17.50;;;9.80;99.90;;;;;;5062078;28;20176;-72
2022/05/01 03:27:10;;;;;;;20.80;18.58;;;9.70;99.90;;;;;;5057482;28;20211;-72
2022/05/01 03:29:37;;;;;;;21.15;18.95;;;9.80;99.90;;;;;;5062297;28;20251;-72
2022/05/01 03:32:07;;;;;;;21.58;19.27;;;9.80;99.90;;;;;;5055094;28;20266;-71
2022/05/01 03:34:37;;;;;;;21.67;19.25;;;9.80;99.90;;;;;;5055973;28;20190;-72
2022/05/01 03:37:04;;;;;;;21.42;19.27;;;9.80;99.90;;;;;;5054896;28;20744;-73
2022/05/01 03:39:29;;;;;;;23.25;18.90;;;9.80;99.90;;;;;;5055786;28;20227;-71
2022/05/01 03:41:55;;;;;;;21.58;19.27;;;9.80;99.90;;;;;;5055516;28;20188;-74
2022/05/01 03:44:20;;;;;;;21.90;19.10;;;9.70;99.90;;;;;;5055478;28;20180;-72
2022/05/01 03:46:46;;;;;;;21.50;19.27;;;9.80;99.90;;;;;;5055705;28;20816;-72
2022/05/01 03:49:11;;;;;;;22.40;20.00;;;9.80;99.90;;;;;;5059377;28;20186;-72
2022/05/01 03:51:37;;;;;;;23.30;20.40;;;9.80;99.90;;;;;;5057205;28;20646;-72
2022/05/01 03:54:04;;;;;;;21.70;19.05;;;9.80;99.90;;;;;;5045616;28;20268;-71
2022/05/01 03:56:31;;;;;;;22.05;19.75;;;9.70;99.90;;;;;;5046279;28;20210;-72
2022/05/01 03:58:57;;;;;;;22.20;19.02;;;9.70;99.90;;;;;;5060003;28;20650;-74
2022/05/01 04:01:24;;;;;;;22.17;19.30;;;9.70;99.90;;;;;;5057308;28;20176;-72
2022/05/01 04:03:49;;;;;;;21.80;19.45;;;9.70;99.90;;;;;;5054031;28;20184;-74
2022/05/01 04:06:15;;;;;;;21.92;19.77;;;9.70;99.90;;;;;;5046777;28;20229;-72
2022/05/01 04:08:42;;;;;;;22.65;18.85;;;9.70;99.90;;;;;;5048519;28;20735;-72
2022/05/01 04:11:07;;;;;;;21.40;19.27;;;9.60;99.90;;;;;;5056415;28;20180;-72
2022/05/01 04:13:35;;;;;;;21.45;19.15;;;9.60;99.90;;;;;;5056630;28;20674;-73
2022/05/01 04:16:01;;;;;;;22.15;19.75;;;9.60;99.90;;;;;;5055634;28;20703;-71
2022/05/01 04:18:26;;;;;;;22.98;19.95;;;9.60;99.90;;;;;;5054803;28;20192;-71
2022/05/01 04:20:52;;;;;;;22.48;19.42;;;9.60;99.90;;;;;;5052229;28;20245;-72
2022/05/01 04:23:18;;;;;;;24.80;19.70;;;9.70;99.90;;;;;;5057028;28;20221;-73
2022/05/01 04:25:44;;;;;;;20.60;18.55;;;9.70;99.90;;;;;;5058266;28;20191;-71
2022/05/01 04:28:11;;;;;;;21.52;19.05;;;9.70;99.90;;;;;;5055445;28;20211;-72
2022/05/01 04:30:38;;;;;;;22.23;18.45;;;9.60;99.90;;;;;;5052358;28;20180;-73
2022/05/01 04:33:13;;;;;;;22.30;19.88;;;9.50;99.90;;;;;;5058567;28;20670;-72
2022/05/01 04:35:50;;;;;;;23.88;20.20;;;9.60;99.90;;;;;;5055709;28;20213;-73
2022/05/01 04:38:15;;;;;;;21.35;19.15;;;9.50;99.90;;;;;;5050541;28;20681;-73
2022/05/01 04:40:46;;;;;;;22.98;20.33;;;9.50;99.90;;;;;;5050480;28;20175;-72
2022/05/01 04:43:12;;;;;;;22.10;19.85;;;9.60;99.90;;;;;;5054558;28;20585;-72
2022/05/01 04:45:40;;;;;;;22.15;19.77;;;9.50;99.90;;;;;;5050071;28;20211;-72
2022/05/01 04:48:08;;;;;;;23.52;20.42;;;9.70;99.90;;;;;;5052305;28;20272;-71
2022/05/01 04:50:34;;;;;;;22.00;19.70;;;9.70;99.90;;;;;;5049782;28;20544;-72
2022/05/01 04:53:01;;;;;;;20.70;18.60;;;9.70;99.90;;;;;;5053294;28;20338;-72
2022/05/01 04:55:27;;;;;;;20.42;18.42;;;9.70;99.90;;;;;;5048551;28;20199;-72
2022/05/01 04:57:53;;;;;;;20.52;18.42;;;9.60;99.90;;;;;;5058419;28;20261;-72
2022/05/01 05:00:19;;;;;;;20.55;18.63;;;9.60;99.90;;;;;;5056538;28;20231;-71
2022/05/01 05:02:50;;;;;;;21.02;18.52;;;9.80;99.90;;;;;;5051573;28;20176;-74
2022/05/01 05:05:17;;;;;;;18.95;17.10;;;9.70;99.90;;;;;;5051290;28;20196;-72
2022/05/01 05:07:42;;;;;;;19.98;17.90;;;9.70;99.90;;;;;;5042816;28;20690;-73
2022/05/01 05:10:10;;;;;;;21.33;19.15;;;9.60;99.90;;;;;;5048220;28;20186;-72
2022/05/01 05:12:36;;;;;;;20.52;18.48;;;9.80;99.90;;;;;;5052016;28;20187;-76
2022/05/01 05:15:09;;;;;;;19.77;17.70;;;9.90;99.90;;;;;;5041605;28;20624;-76
2022/05/01 05:17:35;;;;;;;18.48;16.58;;;9.90;99.90;;;;;;5042158;28;20211;-75
2022/05/01 05:20:01;;;;;;;20.92;17.77;;;9.90;99.90;;;;;;5045310;28;20702;-76
2022/05/01 05:22:27;;;;;;;19.58;17.52;;;9.90;99.90;;;;;;5044372;28;20639;-76
2022/05/01 05:24:53;;;;;;;19.45;17.52;;;10.00;99.90;;;;;;5053489;28;20239;-77
2022/05/01 05:27:21;;;;;;;20.33;18.23;;;10.00;99.90;;;;;;5056413;28;20670;-77
2022/05/01 05:29:47;;;;;;;20.02;18.10;;;10.00;99.90;;;;;;5049782;28;20179;-76
2022/05/01 05:32:13;;;;;;;20.85;18.73;;;10.10;99.90;;;;;;5048157;28;20180;-77
2022/05/01 05:34:39;;;;;;;20.27;18.17;;;10.10;99.90;;;;;;5060486;28;20175;-76
2022/05/01 05:37:04;;;;;;;18.02;16.27;;;10.10;99.90;;;;;;5053090;28;20682;-76
2022/05/01 05:39:30;;;;;;;19.27;17.35;;;10.00;99.90;;;;;;5054162;28;20189;-78
2022/05/01 05:41:56;;;;;;;21.20;19.10;;;10.10;99.90;;;;;;5046800;28;20184;-77
2022/05/01 05:44:21;;;;;;;20.90;18.80;;;10.10;99.90;;;;;;5050440;28;20197;-74
2022/05/01 05:46:47;;;;;;;20.90;18.88;;;10.20;99.90;;;;;;5053131;28;20557;-76
2022/05/01 05:49:13;;;;;;;19.73;17.92;;;10.30;99.90;;;;;;5056414;28;20183;-76
2022/05/01 05:51:38;;;;;;;20.30;18.30;;;10.20;99.90;;;;;;5051210;28;20177;-77
2022/05/01 05:54:04;;;;;;;20.92;18.77;;;10.30;99.90;;;;;;5042949;28;20648;-76
2022/05/01 05:56:30;;;;;;;22.20;19.83;;;10.40;99.90;;;;;;5045523;28;20197;-76
2022/05/01 05:58:56;;;;;;;23.77;21.23;;;10.40;99.90;;;;;;5060610;28;20264;-76
2022/05/01 06:01:22;;;;;;;21.05;18.83;;;10.40;99.90;;;;;;5050843;28;20193;-76
2022/05/01 06:03:49;;;;;;;20.85;18.77;;;10.40;99.90;;;;;;5049785;28;20202;-76
2022/05/01 06:06:15;;;;;;;24.27;20.25;;;10.40;99.90;;;;;;5044494;28;20206;-76
2022/05/01 06:08:41;;;;;;;21.88;19.77;;;10.40;99.90;;;;;;5046228;28;20223;-76
2022/05/01 06:11:06;;;;;;;22.58;19.73;;;10.40;99.90;;;;;;5051062;28;20655;-81
2022/05/01 06:13:32;;;;;;;21.52;19.33;;;10.40;99.90;;;;;;5032303;28;20540;-79
2022/05/01 06:15:58;;;;;;;21.92;19.40;;;10.40;99.90;;;;;;5047110;28;20286;-73
2022/05/01 06:18:24;;;;;;;21.98;19.77;;;10.40;99.90;;;;;;5052796;28;20168;-74
2022/05/01 06:20:50;;;;;;;22.75;19.42;;;10.50;99.90;;;;;;5048402;28;20226;-73
2022/05/01 06:23:16;;;;;;;20.90;18.83;;;10.40;99.90;;;;;;5052481;28;20176;-74
2022/05/01 06:25:46;;;;;;;21.30;18.98;;;10.40;99.90;;;;;;5044992;28;20216;-76
2022/05/01 06:28:13;;;;;;;21.73;19.63;;;10.40;99.90;;;;;;5045652;28;20294;-74
2022/05/01 06:30:44;;;;;;;23.52;20.98;;;10.40;99.90;;;;;;5047230;28;20276;-72
2022/05/01 06:33:14;;;;;;;20.95;17.00;;;10.40;99.90;;;;;;5052363;28;20205;-75
2022/05/01 06:35:41;;;;;;;20.50;18.52;;;10.40;99.90;;;;;;5044446;28;20214;-73
2022/05/01 06:38:09;;;;;;;21.73;18.13;;;10.40;99.90;;;;;;5051554;28;20197;-74
2022/05/01 06:40:38;;;;;;;21.88;18.77;;;10.40;99.90;;;;;;5041829;28;20181;-73
2022/05/01 06:43:04;;;;;;;21.42;19.25;;;10.50;99.90;;;;;;5042872;28;20184;-73
2022/05/01 06:45:30;;;;;;;19.98;17.95;;;10.50;99.90;;;;;;5042605;28;20208;-73
2022/05/01 06:47:55;;;;;;;19.98;17.27;;;10.50;99.90;;;;;;5050264;28;20211;-77
2022/05/01 06:50:21;;;;;;;18.67;16.77;;;10.50;99.90;;;;;;5047801;28;20551;-73
2022/05/01 06:52:46;;;;;;;20.98;18.88;;;10.50;99.90;;;;;;5049430;28;20222;-75
2022/05/01 06:55:14;;;;;;;22.17;19.77;;;10.60;99.90;;;;;;5045249;28;20670;-74
2022/05/01 06:57:39;;;;;;;20.92;17.60;;;10.60;99.90;;;;;;5041267;28;20647;-73
2022/05/01 07:00:06;;;;;;;20.45;18.33;;;10.60;99.90;;;;;;5046721;28;20218;-73
2022/05/01 07:02:32;;;;;;;21.05;18.95;;;10.70;99.90;;;;;;5052105;28;20568;-73
2022/05/01 07:04:58;;;;;;;18.80;16.85;;;10.70;99.90;;;;;;5041838;28;20698;-73
2022/05/01 07:07:23;;;;;;;19.95;18.08;;;10.70;99.90;;;;;;5047924;28;20230;-75
2022/05/01 07:09:50;;;;;;;21.05;19.08;;;10.70;99.90;;;;;;5046731;28;20821;-76
2022/05/01 07:12:16;;;;;;;18.88;16.95;;;10.70;99.90;;;;;;5044644;28;20176;-73
2022/05/01 07:14:43;;;;;;;20.80;18.70;;;10.80;99.90;;;;;;5039933;28;20180;-73
2022/05/01 07:17:09;;;;;;;21.05;19.05;;;11.00;99.90;;;;;;5047951;28;20241;-72
2022/05/01 07:19:35;;;;;;;19.48;17.65;;;11.10;99.90;;;;;;5046591;28;20357;-73
2022/05/01 07:22:00;;;;;;;17.60;15.75;;;11.00;99.90;;;;;;5026863;28;20582;-73
2022/05/01 07:24:26;;;;;;;15.80;14.25;;;11.10;99.90;;;;;;5044818;28;20208;-73
2022/05/01 07:26:51;;;;;;;16.17;14.65;;;11.30;99.90;;;;;;5039256;28;20692;-77
2022/05/01 07:29:17;;;;;;;17.35;15.63;;;11.50;99.90;;;;;;5039761;28;20185;-75
2022/05/01 07:31:43;;;;;;;17.90;16.33;;;11.90;99.90;;;;;;5043687;28;20606;-73
2022/05/01 07:34:10;;;;;;;16.55;15.05;;;12.20;99.90;;;;;;5045841;28;20204;-73
2022/05/01 07:36:36;;;;;;;14.38;13.13;;;12.30;99.90;;;;;;5038133;28;20192;-75
2022/05/01 07:39:02;;;;;;;14.82;13.52;;;12.40;99.90;;;;;;5041484;28;20240;-73
2022/05/01 07:41:29;;;;;;;15.02;13.60;;;12.60;99.90;;;;;;5025437;28;20283;-73
2022/05/01 07:43:55;;;;;;;13.75;12.65;;;12.90;99.90;;;;;;5042151;28;20726;-74
2022/05/01 07:46:21;;;;;;;12.88;11.77;;;13.20;99.90;;;;;;5046039;28;20207;-74
2022/05/01 07:48:47;;;;;;;13.70;12.50;;;13.40;99.90;;;;;;5046574;28;20313;-74
2022/05/01 07:51:15;;;;;;;13.50;12.27;;;13.50;99.90;;;;;;5047063;28;20259;-73
2022/05/01 07:53:41;;;;;;;13.15;12.05;;;13.50;99.90;;;;;;5054169;28;20194;-73
2022/05/01 07:56:06;;;;;;;12.35;11.35;;;13.30;99.90;;;;;;5050511;28;20204;-78
2022/05/01 07:58:32;;;;;;;12.88;11.57;;;13.10;99.90;;;;;;5036531;28;20202;-73
2022/05/01 08:01:01;;;;;;;12.93;11.73;;;13.00;99.90;;;;;;5041821;28;20249;-73
2022/05/01 08:06:12;;;;;;;12.68;11.38;;;13.30;99.90;;;;;;5048122;28;20641;-74
2022/05/01 08:08:38;;;;;;;13.68;12.48;;;13.60;99.90;;;;;;5036345;28;20681;-73
2022/05/01 08:11:05;;;;;;;13.27;12.13;;;13.80;99.90;;;;;;5045449;28;20189;-73
2022/05/01 08:13:30;;;;;;;13.27;12.05;;;13.90;99.90;;;;;;5040551;28;20568;-74
2022/05/01 08:15:56;;;;;;;12.50;11.50;;;13.60;99.90;;;;;;5043718;28;20196;-74
2022/05/01 08:21:07;;;;;;;14.13;11.90;;;12.90;99.90;;;;;;5046241;28;20665;-77
2022/05/01 08:23:43;;;;;;;14.20;12.90;;;13.30;99.90;;;;;;5050992;28;20176;-75
2022/05/01 08:26:10;;;;;;;14.15;13.05;;;13.30;99.90;;;;;;5053677;28;20738;-73
2022/05/01 08:28:37;;;;;;;13.63;12.52;;;13.20;99.90;;;;;;5042267;28;20204;-75
2022/05/01 08:31:04;;;;;;;13.68;12.57;;;13.20;99.90;;;;;;5042345;28;20180;-73
2022/05/01 08:33:29;;;;;;;13.07;11.95;;;13.10;99.90;;;;;;5045806;28;20734;-73
2022/05/01 08:35:55;;;;;;;13.15;11.95;;;13.10;99.90;;;;;;5048327;28;20196;-73
2022/05/01 08:38:21;;;;;;;13.52;12.23;;;13.40;99.90;;;;;;5044105;28;20234;-73
2022/05/01 08:40:48;;;;;;;14.38;12.95;;;13.80;99.90;;;;;;5057534;28;20626;-76
2022/05/01 08:43:15;;;;;;;13.68;12.48;;;14.00;99.90;;;;;;5051064;28;20266;-73
2022/05/01 08:45:52;;;;;;;12.45;11.32;;;14.10;99.90;;;;;;5045300;28;20450;-73
2022/05/01 08:48:47;;;;;;;13.02;11.93;;;14.30;99.90;;;;;;5054542;28;20204;-73
2022/05/01 08:51:16;;;;;;;12.45;11.40;;;14.40;99.90;;;;;;5050227;28;20271;-73
2022/05/01 08:53:43;;;;;;;11.98;10.88;;;14.40;99.90;;;;;;5060419;28;20580;-73
2022/05/01 08:56:10;;;;;;;12.32;11.20;;;14.40;99.90;;;;;;5052101;28;20211;-73
2022/05/01 08:58:39;;;;;;;12.35;11.35;;;14.70;99.90;;;;;;5049385;28;20282;-73
2022/05/01 09:01:07;;;;;;;11.38;10.50;;;14.90;99.90;;;;;;5053714;28;20210;-73
2022/05/01 09:03:34;;;;;;;11.57;10.68;;;14.90;99.90;;;;;;5054138;28;20175;-73
2022/05/01 09:06:00;;;;;;;11.18;10.23;;;15.20;99.90;;;;;;5053320;28;20208;-73
2022/05/01 09:08:26;;;;;;;11.25;10.35;;;15.20;99.90;;;;;;5049816;28;20266;-73
2022/05/01 09:10:52;;;;;;;10.05;9.18;;;15.20;99.90;;;;;;5052598;28;20179;-73
2022/05/01 09:13:25;;;;;;;11.20;10.20;;;15.50;99.90;;;;;;5056623;28;20176;-73
2022/05/01 09:15:52;;;;;;;11.00;9.95;;;15.60;99.90;;;;;;5051656;28;20542;-74
2022/05/01 09:18:19;;;;;;;11.35;10.32;;;15.50;99.90;;;;;;5055918;28;20183;-73
2022/05/01 09:21:02;;;;;;;11.07;10.07;;;15.30;99.90;;;;;;5055269;28;20179;-72
2022/05/01 09:23:47;;;;;;;12.00;10.75;;;15.30;99.90;;;;;;5052690;28;20207;-73
2022/05/01 09:26:17;;;;;;;11.60;10.60;;;15.10;99.90;;;;;;5051047;28;20290;-73
2022/05/01 09:28:54;;;;;;;11.57;10.57;;;15.10;99.90;;;;;;5047171;28;20217;-74
2022/05/01 09:31:44;;;;;;;10.68;9.77;;;15.20;99.90;;;;;;5053444;28;20684;-73
2022/05/01 09:34:21;;;;;;;11.50;10.40;;;15.10;99.90;;;;;;5056228;28;20188;-73
2022/05/01 09:36:47;;;;;;;11.80;10.80;;;15.10;99.90;;;;;;5033777;28;20563;-73
2022/05/01 09:39:22;;;;;;;11.07;9.98;;;15.10;99.90;;;;;;5056893;28;20256;-73
2022/05/01 09:41:49;;;;;;;10.57;9.77;;;15.10;99.90;;;;;;5055152;28;20183;-73
2022/05/01 09:44:16;;;;;;;11.70;10.77;;;14.90;99.90;;;;;;5060126;28;20187;-73
2022/05/01 09:46:47;;;;;;;12.02;11.00;;;14.70;99.90;;;;;;5057375;28;20203;-72
2022/05/01 09:49:14;;;;;;;10.38;9.20;;;14.60;99.90;;;;;;5062418;28;20623;-73
2022/05/01 09:51:43;;;;;;;10.05;9.35;;;14.30;99.90;;;;;;5060257;28;20174;-74
2022/05/01 09:54:16;;;;;;;11.82;10.80;;;14.10;99.90;;;;;;5061087;28;20569;-73
2022/05/01 09:56:59;;;;;;;10.60;9.60;;;14.30;99.90;;;;;;5042292;28;20201;-73
2022/05/01 09:59:27;;;;;;;10.77;9.60;;;14.30;99.90;;;;;;5057054;28;20172;-73
2022/05/01 10:02:02;;;;;;;10.75;9.90;;;14.70;99.90;;;;;;5056533;28;20230;-73
2022/05/01 10:04:29;;;;;;;11.50;10.48;;;14.90;99.90;;;;;;5050046;28;20186;-73
2022/05/01 10:06:56;;;;;;;11.20;10.20;;;15.20;99.90;;;;;;5057787;28;20214;-73
2022/05/01 10:09:27;;;;;;;11.57;10.57;;;15.60;99.90;;;;;;5056914;28;20179;-73
2022/05/01 10:11:55;;;;;;;11.07;10.20;;;15.90;99.90;;;;;;5059681;28;20195;-74
2022/05/01 10:14:21;;;;;;;10.77;9.85;;;16.40;99.90;;;;;;5048638;28;20187;-73
2022/05/01 10:16:47;;;;;;;9.82;9.02;;;16.70;99.90;;;;;;5054944;28;20564;-73
2022/05/01 10:19:21;;;;;;;10.35;9.45;;;16.90;99.90;;;;;;5053458;28;20188;-73
2022/05/01 10:21:49;;;;;;;11.27;10.38;;;16.80;99.90;;;;;;5047400;28;20267;-73
2022/05/01 10:24:15;;;;;;;9.98;9.18;;;16.70;99.90;;;;;;5051196;28;20182;-73
2022/05/01 10:27:13;;;;;;;9.88;9.18;;;17.00;99.90;;;;;;5057054;28;20278;-74
2022/05/01 10:32:20;;;;;;;9.55;8.85;;;17.00;99.90;;;;;;5045914;28;20191;-75
2022/05/01 10:33:32;;;;;;;10.45;9.55;;;17.30;99.90;;;;;;5061826;28;20187;-74
2022/05/01 10:36:48;;;;;;;9.18;8.43;;;17.40;99.90;;;;;;4989246;28;20213;-74
2022/05/01 10:39:17;;;;;;;9.18;8.48;;;17.50;99.90;;;;;;4964298;28;20208;-74
2022/05/01 10:41:45;;;;;;;9.43;8.70;;;17.40;99.90;;;;;;5055580;28;20187;-73
2022/05/01 10:44:34;;;;;;;9.80;9.00;;;17.10;99.90;;;;;;5054337;28;20192;-73
2022/05/01 10:47:18;;;;;;;10.18;9.32;;;17.10;99.90;;;;;;5052405;28;20233;-73
2022/05/01 10:49:45;;;;;;;9.70;8.95;;;16.90;99.90;;;;;;5051291;28;20206;-74
2022/05/01 10:52:19;;;;;;;8.95;8.15;;;17.00;99.90;;;;;;5053738;28;20182;-73
2022/05/01 10:55:05;;;;;;;8.75;8.05;;;17.10;99.90;;;;;;5059040;28;20175;-73
2022/05/01 10:57:32;;;;;;;9.88;8.45;;;17.50;99.90;;;;;;5058091;28;20227;-73
2022/05/01 11:00:11;;;;;;;8.43;7.82;;;17.60;99.90;;;;;;5059716;28;20236;-73
2022/05/01 11:02:41;;;;;;;9.73;8.95;;;17.40;99.90;;;;;;5057493;28;20270;-74
2022/05/01 11:05:10;;;;;;;8.88;8.18;;;17.30;99.90;;;;;;5060162;28;20175;-73
2022/05/01 11:07:39;;;;;;;9.35;8.45;;;17.10;99.90;;;;;;5059197;28;20215;-73
2022/05/01 11:10:07;;;;;;;9.98;8.65;;;17.30;99.90;;;;;;5052024;28;20171;-73
2022/05/01 11:12:35;;;;;;;9.52;8.73;;;17.20;99.90;;;;;;5056644;28;20188;-74
2022/05/01 11:15:09;;;;;;;9.07;8.27;;;17.20;99.90;;;;;;5058206;28;20175;-73
2022/05/01 11:17:47;;;;;;;9.57;8.77;;;17.30;99.90;;;;;;5060545;28;20221;-74
2022/05/01 11:20:19;;;;;;;9.55;8.75;;;17.50;99.90;;;;;;5050737;28;20187;-74
2022/05/01 11:22:46;;;;;;;9.13;8.43;;;17.80;99.90;;;;;;5054750;28;20626;-74
2022/05/01 11:25:17;;;;;;;8.52;7.82;;;18.20;99.90;;;;;;5040881;28;20203;-74
2022/05/01 11:27:51;;;;;;;8.90;8.10;;;18.60;99.90;;;;;;5053320;28;20203;-74
2022/05/01 11:30:33;;;;;;;8.40;7.63;;;19.20;99.90;;;;;;5052672;28;20187;-73
2022/05/01 11:33:10;;;;;;;8.65;7.35;;;19.70;99.90;;;;;;5054254;28;20191;-73
2022/05/01 11:35:58;;;;;;;8.40;7.70;;;20.10;99.90;;;;;;5059654;28;20192;-74
2022/05/01 11:38:49;;;;;;;8.65;7.88;;;20.70;99.90;;;;;;5047040;28;20223;-74
2022/05/01 11:41:15;;;;;;;8.27;7.53;;;21.10;99.90;;;;;;5037019;28;20183;-74
2022/05/01 11:43:41;;;;;;;10.40;7.90;;;21.00;99.90;;;;;;5059396;28;20613;-74
2022/05/01 11:46:17;;;;;;;8.32;7.28;;;21.00;99.90;;;;;;5051874;28;20298;-74
2022/05/01 11:48:43;;;;;;;7.68;7.07;;;21.70;99.90;;;;;;5054291;28;20661;-74
2022/05/01 11:51:10;;;;;;;8.10;7.47;;;22.10;99.90;;;;;;5051957;28;20190;-74
2022/05/01 11:53:38;;;;;;;7.72;7.13;;;22.00;99.90;;;;;;5057908;28;20168;-74
2022/05/01 12:04:34;;;;;;;8.57;7.78;;;22.00;99.90;;;;;;5053750;28;20288;-74
2022/05/01 12:07:12;;;;;;;8.07;7.05;;;22.00;99.90;;;;;;5055791;28;20218;-75
2022/05/01 12:09:39;;;;;;;7.88;7.22;;;22.40;99.90;;;;;;5058714;28;20179;-74
2022/05/01 12:12:16;;;;;;;7.60;7.10;;;22.40;99.90;;;;;;5048401;28;20213;-74
2022/05/01 12:14:43;;;;;;;9.38;7.97;;;22.00;99.90;;;;;;5060732;28;20174;-74
2022/05/01 12:17:09;;;;;;;7.70;7.00;;;21.80;99.90;;;;;;5050903;28;20602;-75
2022/05/01 12:19:39;;;;;;;9.30;8.50;;;21.50;99.90;;;;;;5059664;28;20673;-74
2022/05/01 12:22:07;;;;;;;7.90;7.32;;;20.90;99.90;;;;;;5047201;28;20242;-74
2022/05/01 12:24:33;;;;;;;8.93;7.63;;;20.50;99.90;;;;;;5054347;28;20185;-75
2022/05/01 12:26:59;;;;;;;7.90;7.10;;;20.40;99.90;;;;;;5055182;28;20249;-75
2022/05/01 12:29:26;;;;;;;8.95;8.15;;;20.20;99.90;;;;;;5051205;28;20714;-74
2022/05/01 12:32:11;;;;;;;8.73;8.02;;;20.40;99.90;;;;;;5055053;28;20175;-74
2022/05/01 12:34:57;;;;;;;9.07;8.32;;;20.20;99.90;;;;;;5053753;28;20194;-75
2022/05/01 12:37:32;;;;;;;8.50;7.80;;;19.80;99.90;;;;;;5055468;28;20259;-74
2022/05/01 12:40:10;;;;;;;8.25;7.55;;;19.60;99.90;;;;;;5032077;28;20179;-74
2022/05/01 12:45:36;;;;;;;8.48;7.78;;;19.60;99.90;;;;;;5058545;28;20209;-74
2022/05/01 12:48:04;;;;;;;8.93;8.13;;;19.90;99.90;;;;;;5052581;28;20590;-74
2022/05/01 12:50:31;;;;;;;8.52;7.80;;;19.70;99.90;;;;;;5054215;28;20674;-74
2022/05/01 12:53:27;;;;;;;8.77;8.07;;;20.00;99.90;;;;;;5053466;28;20187;-74
2022/05/01 12:55:54;;;;;;;8.27;7.57;;;20.10;99.90;;;;;;5047413;28;20218;-74
2022/05/01 12:58:30;;;;;;;9.48;8.70;;;20.20;99.90;;;;;;5048271;28;20207;-74
2022/05/01 13:00:56;;;;;;;8.65;7.95;;;20.50;99.90;;;;;;5050325;28;20191;-75
2022/05/01 13:03:36;;;;;;;8.13;7.43;;;20.50;99.90;;;;;;5054706;28;20217;-74
2022/05/01 13:06:08;;;;;;;8.77;8.00;;;20.80;99.90;;;;;;5056074;28;20201;-74
2022/05/01 13:08:53;;;;;;;8.52;7.82;;;20.70;99.90;;;;;;5051006;28;20292;-74